Time;durP1;ratioP1;P1;durP2;ratioP2;P2;SDS_P1;SDS_P2;PMS_P1;PMS_P2;Temp;Humidity;BMP_temperature;BMP_pressure;BME280_temperature;BME280_humidity;BME280_pressure;Samples;Min_cycle;Max_cycle;Signal;HPM_P1;HPM_P2
2023/04/04 00:00:17;;;;;;;3.60;1.55;;;;;;;4.87;54.79;101241.53;4989738;28;20112;-81
2023/04/04 00:02:45;;;;;;;4.00;1.80;;;;;;;4.85;54.42;101241.53;4989703;28;20128;-81
2023/04/04 00:05:11;;;;;;;3.22;1.33;;;;;;;4.81;54.69;101238.09;4990810;28;20066;-81
2023/04/04 00:07:38;;;;;;;3.95;1.65;;;;;;;4.77;54.68;101233.78;4991677;28;20523;-81
2023/04/04 00:10:05;;;;;;;2.63;1.55;;;;;;;4.73;54.77;101231.22;4991894;28;20061;-81
2023/04/04 00:12:32;;;;;;;4.07;1.75;;;;;;;4.68;54.88;101229.50;4993169;28;20058;-81
2023/04/04 00:14:58;;;;;;;2.95;1.50;;;;;;;4.64;54.77;101226.97;4992964;28;20050;-81
2023/04/04 00:17:25;;;;;;;5.35;1.75;;;;;;;4.61;54.96;101219.16;4992751;28;20050;-81
2023/04/04 00:19:51;;;;;;;3.42;2.00;;;;;;;4.57;55.00;101213.94;4993009;28;20505;-81
2023/04/04 00:22:17;;;;;;;3.20;1.63;;;;;;;4.55;55.20;101222.66;4993111;28;20065;-81
2023/04/04 00:24:44;;;;;;;2.78;1.50;;;;;;;4.52;55.39;101220.94;4992937;28;20058;-81
2023/04/04 00:27:10;;;;;;;3.08;1.42;;;;;;;4.51;55.36;101226.19;4992594;28;20497;-81
2023/04/04 00:29:37;;;;;;;4.57;1.60;;;;;;;4.47;55.14;101225.34;4991561;28;20120;-80
2023/04/04 00:32:04;;;;;;;4.00;2.10;;;;;;;4.43;54.94;101227.13;4992773;28;20058;-81
2023/04/04 00:34:30;;;;;;;3.10;1.60;;;;;;;4.41;55.22;101228.00;4993006;28;20061;-81
2023/04/04 00:36:57;;;;;;;4.30;2.05;;;;;;;4.39;55.23;101232.34;4992353;28;20065;-81
2023/04/04 00:39:25;;;;;;;5.35;1.73;;;;;;;4.34;55.51;101213.28;4992667;28;20141;-81
2023/04/04 00:41:51;;;;;;;2.63;1.55;;;;;;;4.32;55.06;101220.22;4991586;28;20535;-81
2023/04/04 00:44:18;;;;;;;2.80;1.60;;;;;;;4.27;55.55;101223.75;4992656;28;20054;-81
2023/04/04 00:46:45;;;;;;;2.63;1.48;;;;;;;4.22;55.47;101215.09;4990639;28;20058;-81
2023/04/04 00:49:11;;;;;;;4.40;1.70;;;;;;;4.19;55.35;101214.25;4991254;28;20062;-81
2023/04/04 00:51:37;;;;;;;4.63;1.60;;;;;;;4.15;55.54;101210.81;4991313;28;20120;-81
2023/04/04 00:54:04;;;;;;;4.30;1.80;;;;;;;4.11;55.83;101212.56;4992482;28;20110;-81
2023/04/04 00:56:31;;;;;;;5.68;2.20;;;;;;;4.08;55.66;101209.13;4992073;28;20051;-81
2023/04/04 00:58:59;;;;;;;4.43;1.40;;;;;;;4.06;55.75;101214.34;4992442;28;20058;-81
2023/04/04 01:01:26;;;;;;;4.78;2.03;;;;;;;4.07;56.05;101210.00;4992578;28;20050;-81
2023/04/04 01:03:53;;;;;;;3.78;1.50;;;;;;;4.08;55.73;101206.50;4991246;28;20058;-80
2023/04/04 01:06:20;;;;;;;4.72;1.95;;;;;;;4.10;55.86;101208.22;4992151;28;20489;-81
2023/04/04 01:08:47;;;;;;;4.30;1.77;;;;;;;4.11;55.60;101201.28;4991652;28;20070;-81
2023/04/04 01:11:14;;;;;;;3.88;1.73;;;;;;;4.11;55.71;101204.75;4992193;28;20062;-81
2023/04/04 01:13:42;;;;;;;2.55;1.52;;;;;;;4.10;55.89;101199.53;4992153;28;20066;-81
2023/04/04 01:16:08;;;;;;;5.93;2.47;;;;;;;4.09;55.80;101200.41;4990446;28;20059;-81
2023/04/04 01:18:36;;;;;;;4.72;1.50;;;;;;;4.07;55.52;101194.38;4991772;28;20220;-81
2023/04/04 01:21:08;;;;;;;2.40;1.70;;;;;;;4.02;55.32;101200.47;4990636;28;20059;-81
2023/04/04 01:23:50;;;;;;;5.55;1.95;;;;;;;3.98;54.84;101203.97;4992047;28;20124;-81
2023/04/04 01:26:20;;;;;;;5.25;1.65;;;;;;;3.99;55.78;101200.47;4991356;28;20054;-81
2023/04/04 01:28:46;;;;;;;3.17;1.80;;;;;;;3.97;55.92;101201.38;4990056;28;20058;-81
2023/04/04 01:31:14;;;;;;;4.90;1.80;;;;;;;3.94;56.07;101193.56;4991915;28;20112;-81
2023/04/04 01:33:57;;;;;;;4.88;1.98;;;;;;;3.87;54.41;101198.81;4990256;28;20428;-81
2023/04/04 01:36:32;;;;;;;2.55;1.55;;;;;;;3.86;55.19;101191.88;4991345;28;20058;-81
2023/04/04 01:39:31;;;;;;;4.18;1.80;;;;;;;3.83;54.55;101191.91;4990637;28;20054;-81
2023/04/04 01:42:00;;;;;;;4.13;1.65;;;;;;;3.87;56.08;101193.63;4991839;28;20058;-81
2023/04/04 01:44:26;;;;;;;7.72;1.75;;;;;;;3.85;56.30;101186.69;4991555;28;20065;-81
2023/04/04 01:46:53;;;;;;;4.70;2.00;;;;;;;3.85;56.27;101184.91;4989495;28;20437;-80
2023/04/04 01:49:23;;;;;;;4.55;1.98;;;;;;;3.85;55.67;101189.28;4991383;28;20086;-80
2023/04/04 01:51:51;;;;;;;2.08;1.40;;;;;;;3.83;56.17;101191.03;4991242;28;20058;-81
2023/04/04 01:54:18;;;;;;;5.40;2.00;;;;;;;3.84;56.33;101183.19;4989995;28;20100;-81
2023/04/04 01:56:45;;;;;;;3.38;1.52;;;;;;;3.86;56.32;101186.69;4990725;28;20145;-81
2023/04/04 01:59:11;;;;;;;4.85;2.03;;;;;;;3.85;56.51;101184.91;4991365;28;20152;-81
2023/04/04 02:01:38;;;;;;;4.25;1.48;;;;;;;3.87;56.30;101184.91;4991075;28;20145;-80
2023/04/04 02:04:05;;;;;;;2.63;1.75;;;;;;;3.88;56.60;101184.03;4991388;28;20069;-81
2023/04/04 02:06:35;;;;;;;5.40;1.67;;;;;;;3.90;55.98;101179.69;4990611;28;20145;-80
2023/04/04 02:09:02;;;;;;;4.82;1.55;;;;;;;3.93;56.30;101189.22;4990825;28;20424;-81
2023/04/04 02:11:28;;;;;;;6.50;2.30;;;;;;;3.94;56.54;101183.13;4989611;28;20061;-81
2023/04/04 02:13:54;;;;;;;3.38;1.30;;;;;;;3.95;56.27;101187.47;4990970;28;20424;-80
2023/04/04 02:16:21;;;;;;;3.08;1.77;;;;;;;3.95;56.41;101190.94;4990514;28;20062;-80
2023/04/04 02:18:47;;;;;;;4.22;1.50;;;;;;;3.96;56.54;101184.84;4990443;28;20535;-80
2023/04/04 02:21:14;;;;;;;2.97;1.20;;;;;;;3.97;56.24;101186.63;4990629;28;20536;-80
2023/04/04 02:23:40;;;;;;;4.00;1.83;;;;;;;3.95;56.43;101177.94;4990880;28;20116;-80
2023/04/04 02:26:07;;;;;;;10.75;1.83;;;;;;;3.96;56.34;101179.66;4990552;28;20054;-81
2023/04/04 02:28:33;;;;;;;4.00;1.50;;;;;;;3.97;56.57;101190.94;4989604;28;20058;-81
2023/04/04 02:31:03;;;;;;;3.85;1.52;;;;;;;3.95;56.36;101188.34;4990644;28;20218;-81
2023/04/04 02:33:30;;;;;;;2.50;1.50;;;;;;;3.94;56.67;101186.63;4989607;28;20062;-81
2023/04/04 02:35:57;;;;;;;2.75;1.60;;;;;;;3.96;56.43;101191.81;4988975;28;20065;-81
2023/04/04 02:38:25;;;;;;;5.30;2.08;;;;;;;3.93;56.50;101187.50;4990295;28;20062;-80
2023/04/04 02:40:52;;;;;;;3.28;1.80;;;;;;;3.93;56.37;101184.91;4990577;28;20058;-81
2023/04/04 02:43:18;;;;;;;4.95;1.52;;;;;;;3.92;56.57;101175.31;4990526;28;20046;-81
2023/04/04 02:45:47;;;;;;;3.35;1.60;;;;;;;3.93;55.94;101171.00;4989016;28;20057;-81
2023/04/04 02:48:14;;;;;;;4.72;1.67;;;;;;;3.93;56.62;101168.38;4989978;28;20109;-81
2023/04/04 02:50:40;;;;;;;1.95;1.40;;;;;;;3.91;56.25;101164.06;4990012;28;20424;-81
2023/04/04 02:53:07;;;;;;;4.15;1.48;;;;;;;3.90;56.35;101156.25;4990503;28;20065;-81
2023/04/04 02:55:34;;;;;;;7.03;1.73;;;;;;;3.89;56.32;101162.34;4989948;28;20054;-80
2023/04/04 02:58:00;;;;;;;3.47;1.60;;;;;;;3.86;56.54;101152.81;4988648;28;20058;-81
2023/04/04 03:00:27;;;;;;;3.13;1.38;;;;;;;3.86;56.38;101149.34;4990183;28;20539;-80
2023/04/04 03:02:54;;;;;;;4.70;1.65;;;;;;;3.83;56.36;101150.22;4990305;28;20058;-81
2023/04/04 03:05:25;;;;;;;5.05;1.55;;;;;;;3.81;56.11;101148.50;4988539;28;20054;-81
2023/04/04 03:07:54;;;;;;;2.13;1.55;;;;;;;3.82;56.59;101155.44;4989770;28;20058;-81
2023/04/04 03:10:25;;;;;;;4.85;1.65;;;;;;;3.80;56.55;101144.13;4989893;28;20090;-81
2023/04/04 03:12:52;;;;;;;4.18;1.70;;;;;;;3.79;56.38;101145.91;4990240;28;20061;-81
2023/04/04 03:15:18;;;;;;;2.42;1.48;;;;;;;3.76;56.54;101145.91;4988620;28;20141;-81
2023/04/04 03:17:45;;;;;;;6.15;2.15;;;;;;;3.74;56.41;101139.88;4988451;28;20077;-81
2023/04/04 03:20:13;;;;;;;3.00;1.75;;;;;;;3.74;56.45;101143.31;4990047;28;20136;-81
2023/04/04 03:22:40;;;;;;;6.25;1.98;;;;;;;3.72;56.65;101136.38;4988764;28;20058;-81
2023/04/04 03:25:08;;;;;;;3.45;1.80;;;;;;;3.72;56.76;101147.69;4988148;28;20058;-81
2023/04/04 03:27:34;;;;;;;2.42;1.60;;;;;;;3.70;56.67;101141.59;4989589;28;20061;-80
2023/04/04 03:30:01;;;;;;;8.70;2.00;;;;;;;3.69;56.93;101137.28;4990002;28;20077;-80
2023/04/04 03:32:27;;;;;;;3.60;1.90;;;;;;;3.69;56.52;101132.06;4989970;28;20061;-80
2023/04/04 03:34:54;;;;;;;4.60;2.25;;;;;;;3.67;56.94;101128.63;4989687;28;20125;-80
2023/04/04 03:37:21;;;;;;;7.45;2.28;;;;;;;3.66;56.66;101132.06;4989423;28;20054;-80
2023/04/04 03:39:48;;;;;;;7.47;2.30;;;;;;;3.65;56.85;101130.34;4990877;28;20066;-80
2023/04/04 03:42:14;;;;;;;4.07;1.85;;;;;;;3.62;56.87;101127.75;4992701;28;20428;-80
2023/04/04 03:44:41;;;;;;;4.30;1.95;;;;;;;3.62;57.01;101133.84;4992768;28;20062;-80
2023/04/04 03:47:07;;;;;;;3.53;1.90;;;;;;;3.60;56.59;101127.78;4993228;28;20429;-81
2023/04/04 03:49:34;;;;;;;4.22;1.90;;;;;;;3.59;56.91;101130.41;4992408;28;20524;-81
2023/04/04 03:52:03;;;;;;;5.45;1.80;;;;;;;3.58;56.54;101133.84;5078906;23;20057;-79
2023/04/04 03:54:29;;;;;;;4.47;1.90;;;;;;;3.55;57.01;101129.53;4994254;28;20054;-79
2023/04/04 03:56:56;;;;;;;5.47;2.05;;;;;;;3.54;56.86;101124.38;4993949;28;20089;-77
2023/04/04 03:59:23;;;;;;;3.60;1.65;;;;;;;3.52;57.08;101119.16;4994778;28;20147;-79
2023/04/04 04:01:51;;;;;;;3.38;1.85;;;;;;;3.49;56.94;101122.66;4993372;28;20105;-79
2023/04/04 04:04:17;;;;;;;4.55;1.80;;;;;;;3.48;57.04;101123.50;4994559;28;20061;-79
2023/04/04 04:06:44;;;;;;;3.25;1.65;;;;;;;3.46;57.56;101120.06;4993787;28;20137;-79
2023/04/04 04:09:11;;;;;;;3.75;1.80;;;;;;;3.46;56.93;101127.88;4994640;28;20146;-79
2023/04/04 04:11:37;;;;;;;3.58;1.85;;;;;;;3.43;57.42;101120.06;4994733;28;20054;-79
2023/04/04 04:14:04;;;;;;;5.60;2.05;;;;;;;3.42;57.15;101117.47;4993299;28;20058;-77
2023/04/04 04:16:31;;;;;;;5.45;2.03;;;;;;;3.38;56.97;101120.09;4993912;28;20050;-79
2023/04/04 04:18:58;;;;;;;3.83;1.92;;;;;;;3.35;56.84;101117.50;4994386;28;20100;-79
2023/04/04 04:21:25;;;;;;;5.82;1.88;;;;;;;3.30;57.35;101115.78;4994189;28;20089;-79
2023/04/04 04:23:51;;;;;;;4.72;1.80;;;;;;;3.25;57.13;101116.69;4994251;28;20137;-79
2023/04/04 04:26:18;;;;;;;6.53;1.77;;;;;;;3.22;57.35;101116.69;4993853;28;20505;-79
2023/04/04 04:28:46;;;;;;;4.93;1.73;;;;;;;3.20;56.99;101114.97;4993752;28;20051;-79
2023/04/04 04:31:13;;;;;;;5.13;1.50;;;;;;;3.17;57.67;101110.63;4994087;28;20062;-79
2023/04/04 04:33:40;;;;;;;5.97;1.85;;;;;;;3.13;57.68;101117.59;4993967;28;20065;-77
2023/04/04 04:36:06;;;;;;;5.80;1.65;;;;;;;3.10;57.71;101108.94;4993695;28;20054;-79
2023/04/04 04:38:33;;;;;;;4.05;1.35;;;;;;;3.07;57.69;101108.94;4993696;28;20145;-79
2023/04/04 04:41:00;;;;;;;4.88;1.40;;;;;;;3.06;57.88;101112.44;4993968;28;20057;-79
2023/04/04 04:43:27;;;;;;;9.13;2.33;;;;;;;3.04;57.50;101108.97;4994034;28;20526;-79
2023/04/04 04:45:53;;;;;;;2.85;1.65;;;;;;;3.03;57.81;101104.63;5008465;28;20055;-79
2023/04/04 04:48:20;;;;;;;3.63;1.70;;;;;;;3.00;57.59;101095.94;4993402;28;20065;-79
2023/04/04 04:50:47;;;;;;;2.63;2.03;;;;;;;2.99;57.52;101104.63;4992997;28;20050;-79
2023/04/04 04:53:14;;;;;;;6.15;1.60;;;;;;;2.99;57.30;101101.19;4993800;28;20422;-79
2023/04/04 04:55:44;;;;;;;3.10;1.90;;;;;;;2.97;57.78;101101.19;4993228;28;20460;-79
2023/04/04 04:58:11;;;;;;;2.80;1.17;;;;;;;2.97;57.75;101113.31;4993418;28;20085;-79
2023/04/04 05:00:38;;;;;;;5.32;1.65;;;;;;;2.96;57.85;101104.63;4993509;28;20054;-77
2023/04/04 05:03:08;;;;;;;3.60;1.80;;;;;;;2.97;57.88;101115.91;4992073;28;20478;-79
2023/04/04 05:05:35;;;;;;;4.05;1.92;;;;;;;2.98;57.72;101117.63;4993295;28;20054;-79
2023/04/04 05:08:02;;;;;;;3.78;1.50;;;;;;;2.98;58.09;101130.66;4993369;28;20061;-79
2023/04/04 05:10:30;;;;;;;4.03;1.67;;;;;;;2.97;57.93;101127.19;4993402;28;20065;-77
2023/04/04 05:12:57;;;;;;;9.45;2.13;;;;;;;2.97;57.81;101129.81;4992099;28;20050;-80
2023/04/04 05:15:28;;;;;;;3.60;1.80;;;;;;;2.98;57.55;101128.03;4992993;28;20077;-79
2023/04/04 05:17:54;;;;;;;4.50;1.77;;;;;;;2.98;57.86;101130.66;4992836;28;20058;-79
2023/04/04 05:20:22;;;;;;;5.53;1.88;;;;;;;2.99;58.12;101137.59;4993471;28;20061;-79
2023/04/04 05:22:48;;;;;;;4.00;1.92;;;;;;;2.99;57.96;101143.66;4993044;28;20109;-79
2023/04/04 05:25:17;;;;;;;3.60;1.98;;;;;;;3.00;58.16;101140.19;4992909;28;20058;-79
2023/04/04 05:27:47;;;;;;;2.83;1.35;;;;;;;2.98;57.49;101144.53;4992774;28;20062;-79
2023/04/04 05:30:14;;;;;;;4.90;1.60;;;;;;;2.99;57.42;101132.41;4992788;28;20054;-79
2023/04/04 05:32:43;;;;;;;7.20;1.90;;;;;;;2.95;57.41;101134.13;4992313;28;20070;-77
2023/04/04 05:35:09;;;;;;;5.30;1.65;;;;;;;2.93;58.05;101135.00;4996859;28;20125;-79
2023/04/04 05:37:39;;;;;;;4.97;1.77;;;;;;;2.91;57.27;101136.75;4993430;28;20073;-79
2023/04/04 05:40:07;;;;;;;5.30;2.13;;;;;;;2.91;58.31;101140.22;4990754;28;20050;-79
2023/04/04 05:42:34;;;;;;;3.38;1.60;;;;;;;2.91;58.13;101136.75;5001074;28;20062;-79
2023/04/04 05:45:00;;;;;;;3.78;1.80;;;;;;;2.90;58.20;101141.09;5003351;28;20585;-79
2023/04/04 05:47:27;;;;;;;3.45;1.70;;;;;;;2.91;58.42;101147.16;5001963;28;20468;-80
2023/04/04 05:49:53;;;;;;;3.22;1.70;;;;;;;2.91;58.27;101148.00;4987820;28;20061;-79
2023/04/04 05:52:20;;;;;;;3.70;1.55;;;;;;;2.92;58.97;101152.34;4973331;28;20055;-80
2023/04/04 05:54:47;;;;;;;5.40;1.80;;;;;;;2.96;58.58;101150.63;4972992;28;20066;-79
2023/04/04 05:57:13;;;;;;;3.20;1.60;;;;;;;2.98;58.44;101160.13;4996516;28;20054;-80
2023/04/04 05:59:40;;;;;;;6.40;2.00;;;;;;;3.02;58.75;101160.13;5006390;28;20092;-79
2023/04/04 06:02:07;;;;;;;3.65;1.52;;;;;;;3.06;58.66;101156.66;4994736;28;20109;-79
2023/04/04 06:04:33;;;;;;;2.67;1.77;;;;;;;3.09;58.82;101159.22;5008545;28;20064;-80
2023/04/04 06:07:00;;;;;;;6.05;1.73;;;;;;;3.12;58.82;101157.50;5003414;28;20535;-79
2023/04/04 06:09:27;;;;;;;3.03;1.73;;;;;;;3.17;58.99;101170.47;5007278;28;20569;-79
2023/04/04 06:11:54;;;;;;;4.57;1.70;;;;;;;3.20;59.10;101167.88;5011222;28;20574;-79
2023/04/04 06:14:20;;;;;;;4.60;2.03;;;;;;;3.24;58.61;101158.31;5010100;28;20062;-79
2023/04/04 06:16:47;;;;;;;4.65;1.75;;;;;;;3.25;58.68;101160.91;5004961;28;20046;-80
2023/04/04 06:19:14;;;;;;;5.35;2.13;;;;;;;3.27;58.77;101155.72;5005953;28;20486;-79
2023/04/04 06:21:40;;;;;;;3.40;1.75;;;;;;;3.27;58.60;101163.50;4994109;28;20490;-79
2023/04/04 06:24:07;;;;;;;4.60;1.80;;;;;;;3.27;58.92;101158.31;5011552;28;20498;-79
2023/04/04 06:26:33;;;;;;;5.78;2.15;;;;;;;3.29;58.99;101151.34;5004375;28;20100;-79
2023/04/04 06:28:59;;;;;;;5.20;1.80;;;;;;;3.31;59.06;101156.56;5004255;28;20093;-79
2023/04/04 06:31:26;;;;;;;4.45;1.60;;;;;;;3.35;59.05;101173.88;5011341;28;20565;-79
2023/04/04 06:33:53;;;;;;;4.63;1.40;;;;;;;3.38;58.97;101168.69;5011545;28;20045;-79
2023/04/04 06:36:20;;;;;;;6.65;1.77;;;;;;;3.42;59.24;101179.94;5010981;28;20054;-79
2023/04/04 06:38:46;;;;;;;9.63;1.95;;;;;;;3.46;58.90;101168.63;5011071;28;20054;-79
2023/04/04 06:41:13;;;;;;;5.63;1.77;;;;;;;3.51;59.30;101177.28;5011062;28;20073;-79
2023/04/04 06:43:40;;;;;;;3.88;1.60;;;;;;;3.57;59.88;101184.22;5011501;28;20141;-79
2023/04/04 06:46:07;;;;;;;6.30;2.22;;;;;;;3.62;59.47;101175.50;5010949;28;20054;-79
2023/04/04 06:48:33;;;;;;;4.20;1.77;;;;;;;3.68;59.45;101179.81;5010758;28;20521;-79
2023/04/04 06:51:00;;;;;;;6.60;1.70;;;;;;;3.74;58.88;101176.31;5010991;28;20158;-79
2023/04/04 06:53:26;;;;;;;4.68;1.63;;;;;;;3.77;58.82;101182.38;5010934;28;20052;-79
2023/04/04 06:55:53;;;;;;;7.65;2.35;;;;;;;3.84;58.70;101174.50;5010538;28;20514;-79
2023/04/04 06:58:20;;;;;;;5.22;2.58;;;;;;;3.87;59.12;101170.16;5010852;28;20144;-80
2023/04/04 07:00:46;;;;;;;3.95;2.00;;;;;;;3.91;58.57;101173.59;5011149;28;20108;-77
2023/04/04 07:03:13;;;;;;;7.95;2.55;;;;;;;3.93;58.92;101171.88;5011187;28;20085;-79
2023/04/04 07:05:40;;;;;;;4.47;2.45;;;;;;;3.96;58.35;101179.66;5010645;28;20093;-79
2023/04/04 07:08:07;;;;;;;3.42;2.08;;;;;;;3.97;58.23;101178.78;5010433;28;20426;-76
2023/04/04 07:10:34;;;;;;;4.32;2.22;;;;;;;4.00;58.44;101178.75;5010695;28;20058;-79
2023/04/04 07:13:00;;;;;;;5.00;2.40;;;;;;;4.01;58.66;101177.03;5011079;28;20068;-79
2023/04/04 07:15:27;;;;;;;8.00;3.03;;;;;;;4.02;58.55;101184.84;5010097;28;20081;-80
2023/04/04 07:17:53;;;;;;;4.30;2.17;;;;;;;4.05;58.50;101189.16;4999456;28;20060;-79
2023/04/04 07:20:20;;;;;;;4.45;2.40;;;;;;;4.06;58.34;101183.06;5002070;28;20058;-79
2023/04/04 07:22:47;;;;;;;5.75;2.63;;;;;;;4.10;58.65;101187.38;5010789;28;20517;-79
2023/04/04 07:25:14;;;;;;;7.65;2.20;;;;;;;4.15;58.96;101176.94;5010525;28;20490;-79
2023/04/04 07:27:41;;;;;;;5.90;2.10;;;;;;;4.21;59.11;101174.28;5010621;28;20057;-76
2023/04/04 07:30:09;;;;;;;3.90;2.00;;;;;;;4.26;58.66;101175.09;5010769;28;20054;-76
2023/04/04 07:32:37;;;;;;;6.57;2.42;;;;;;;4.33;58.67;101175.06;5010507;28;20499;-78
2023/04/04 07:35:07;;;;;;;6.75;2.35;;;;;;;4.35;58.07;101175.91;5010316;28;20407;-76
2023/04/04 07:37:36;;;;;;;3.47;1.85;;;;;;;4.41;58.26;101178.47;4987003;28;20078;-76
2023/04/04 07:40:05;;;;;;;5.70;2.38;;;;;;;4.46;58.57;101179.28;5002891;28;20054;-79
2023/04/04 07:42:31;;;;;;;8.32;2.50;;;;;;;4.50;58.74;101181.00;4991530;28;20066;-78
2023/04/04 07:44:58;;;;;;;6.40;2.20;;;;;;;4.55;58.45;101181.81;4990448;28;20566;-76
2023/04/04 07:47:26;;;;;;;8.73;2.13;;;;;;;4.61;58.58;101180.03;4990576;28;20141;-79
2023/04/04 07:49:53;;;;;;;4.60;1.90;;;;;;;4.66;58.55;101179.13;4990881;28;20101;-79
2023/04/04 07:52:19;;;;;;;4.90;1.88;;;;;;;4.71;58.62;101170.38;4990955;28;20073;-79
2023/04/04 07:54:46;;;;;;;3.72;1.70;;;;;;;4.75;58.56;101166.88;4990995;28;20050;-77
2023/04/04 07:57:13;;;;;;;6.00;2.03;;;;;;;4.80;58.59;101171.16;4990545;28;20064;-76
2023/04/04 07:59:40;;;;;;;4.68;1.90;;;;;;;4.88;58.67;101173.69;4991258;28;20137;-79
2023/04/04 08:02:06;;;;;;;5.05;1.58;;;;;;;4.95;58.72;101169.25;4990557;28;20055;-78
2023/04/04 08:04:33;;;;;;;5.25;1.90;;;;;;;5.01;58.60;101171.78;4990638;28;20470;-78
2023/04/04 08:06:59;;;;;;;6.13;1.90;;;;;;;5.06;58.70;101172.63;4990326;28;20077;-78
2023/04/04 08:09:30;;;;;;;6.20;2.28;;;;;;;5.14;58.58;101169.06;4990880;28;20050;-78
2023/04/04 08:11:56;;;;;;;3.95;2.13;;;;;;;5.20;58.38;101174.22;4990664;28;20425;-79
2023/04/04 08:14:23;;;;;;;7.20;1.85;;;;;;;5.26;58.41;101166.31;4990614;28;20069;-79
2023/04/04 08:16:50;;;;;;;3.55;1.95;;;;;;;5.31;58.50;101172.31;4989247;28;20149;-78
2023/04/04 08:19:17;;;;;;;5.55;2.28;;;;;;;5.38;58.48;101161.81;4989307;28;20047;-78
2023/04/04 08:21:44;;;;;;;3.35;1.92;;;;;;;5.45;58.40;101160.84;4990368;28;20062;-78
2023/04/04 08:24:11;;;;;;;4.10;1.75;;;;;;;5.52;58.42;101166.84;4990374;28;20050;-78
2023/04/04 08:26:38;;;;;;;7.40;2.33;;;;;;;5.59;58.16;101156.31;4991407;28;20145;-78
2023/04/04 08:29:04;;;;;;;3.90;2.10;;;;;;;5.66;58.12;101156.22;4993946;28;20050;-78
2023/04/04 08:31:31;;;;;;;3.78;1.92;;;;;;;5.74;58.12;101160.47;4994451;28;20058;-78
2023/04/04 08:34:00;;;;;;;5.68;2.03;;;;;;;5.81;57.96;101158.63;4994230;28;20062;-78
2023/04/04 08:36:27;;;;;;;5.57;2.20;;;;;;;5.90;57.65;101156.78;4993982;28;20054;-78
2023/04/04 08:38:54;;;;;;;3.83;1.80;;;;;;;5.97;57.17;101159.25;4993614;28;20065;-78
2023/04/04 08:41:21;;;;;;;6.47;2.03;;;;;;;6.04;57.21;101151.34;4994002;28;20651;-78
2023/04/04 08:43:53;;;;;;;3.17;2.00;;;;;;;6.11;56.71;101166.06;4993882;28;20054;-78
2023/04/04 08:46:24;;;;;;;3.47;1.98;;;;;;;6.17;55.67;101152.88;4993730;28;20424;-78
2023/04/04 08:48:51;;;;;;;5.30;2.28;;;;;;;6.26;56.93;101159.72;4993574;28;20058;-78
2023/04/04 08:51:19;;;;;;;4.95;1.92;;;;;;;6.34;57.09;101159.59;4993623;28;20058;-79
2023/04/04 08:53:46;;;;;;;4.80;2.03;;;;;;;6.42;57.03;101164.72;4993816;28;20097;-78
2023/04/04 08:56:13;;;;;;;4.20;2.10;;;;;;;6.49;56.86;101158.47;4993335;28;20141;-78
2023/04/04 08:58:39;;;;;;;6.68;2.03;;;;;;;6.56;56.96;101162.72;4993129;28;20054;-79
2023/04/04 09:01:07;;;;;;;3.85;2.15;;;;;;;6.64;56.83;101165.19;4993705;28;20113;-76
2023/04/04 09:03:35;;;;;;;4.30;2.45;;;;;;;6.71;56.57;101165.94;4993905;28;20419;-79
2023/04/04 09:06:03;;;;;;;4.22;1.98;;;;;;;6.78;56.58;101157.09;4993289;28;20058;-79
2023/04/04 09:08:30;;;;;;;3.83;1.95;;;;;;;6.86;56.33;101170.91;4993223;28;20061;-78
2023/04/04 09:10:57;;;;;;;4.70;2.00;;;;;;;6.93;56.63;101160.31;4993275;28;20053;-79
2023/04/04 09:13:23;;;;;;;4.03;2.03;;;;;;;7.02;56.94;101167.97;4993270;28;20072;-78
2023/04/04 09:15:53;;;;;;;3.95;2.17;;;;;;;7.10;56.83;101160.00;4993185;28;20058;-79
2023/04/04 09:18:19;;;;;;;5.20;1.98;;;;;;;7.23;56.79;101160.59;4992839;28;20064;-78
2023/04/04 09:20:47;;;;;;;4.70;1.92;;;;;;;7.32;56.70;101149.91;4993047;28;20515;-79
2023/04/04 09:23:15;;;;;;;4.00;2.00;;;;;;;7.44;56.52;101154.03;4992972;28;20150;-79
2023/04/04 09:25:52;;;;;;;4.72;2.30;;;;;;;7.55;54.63;101151.19;4992822;28;20141;-79
2023/04/04 09:28:22;;;;;;;5.60;2.15;;;;;;;7.69;56.66;101146.50;4992922;28;20058;-79
2023/04/04 09:30:50;;;;;;;4.78;1.67;;;;;;;7.81;56.20;101148.00;4993198;28;20061;-79
2023/04/04 09:33:20;;;;;;;8.55;2.80;;;;;;;7.93;55.88;101143.38;4992979;28;20090;-79
2023/04/04 09:36:06;;;;;;;4.72;2.25;;;;;;;8.03;53.60;101141.38;4991328;28;20394;-79
2023/04/04 09:38:36;;;;;;;2.42;1.63;;;;;;;8.16;55.22;101141.94;4992418;28;20376;-79
2023/04/04 09:41:08;;;;;;;3.40;1.90;;;;;;;8.29;55.12;101143.38;4991330;28;20050;-79
2023/04/04 09:43:36;;;;;;;5.88;1.90;;;;;;;8.44;55.62;101136.00;4991685;28;20066;-78
2023/04/04 09:46:03;;;;;;;3.83;1.98;;;;;;;8.56;55.85;101129.63;4993036;28;20097;-79
2023/04/04 09:48:32;;;;;;;6.28;2.00;;;;;;;8.67;55.33;101127.53;4992372;28;20400;-78
2023/04/04 09:50:59;;;;;;;4.50;1.85;;;;;;;8.78;55.73;101124.63;4992755;28;20058;-79
2023/04/04 09:53:26;;;;;;;3.40;1.83;;;;;;;8.90;55.47;101133.94;5104685;23;20443;-81
2023/04/04 09:55:55;;;;;;;6.35;1.90;;;;;;;9.01;54.92;101135.41;4991694;28;20105;-81
2023/04/04 09:58:26;;;;;;;2.92;1.63;;;;;;;9.10;53.01;101128.13;4990368;28;20081;-81
2023/04/04 10:01:00;;;;;;;3.35;1.67;;;;;;;9.22;52.34;101128.66;4990230;28;20104;-81
2023/04/04 10:03:27;;;;;;;6.05;1.95;;;;;;;9.33;54.14;101125.72;4991533;28;20069;-81
2023/04/04 10:05:58;;;;;;;3.92;1.80;;;;;;;9.39;52.66;101120.31;4991460;28;20058;-81
2023/04/04 10:08:27;;;;;;;4.43;1.70;;;;;;;9.49;54.19;101121.72;4991254;28;20583;-81
2023/04/04 10:11:02;;;;;;;2.70;1.70;;;;;;;9.57;53.31;101118.03;4990490;28;20054;-81
2023/04/04 10:13:39;;;;;;;;;;;;;;;9.69;53.28;101120.28;4990841;28;20460;-81
2023/04/04 10:16:07;;;;;;;6.18;1.90;;;;;;;9.84;54.88;101124.19;4989885;28;19925;-81
2023/04/04 10:18:35;;;;;;;4.45;2.15;;;;;;;9.92;54.16;101121.31;4991136;28;20066;-81
2023/04/04 10:21:04;;;;;;;5.22;1.65;;;;;;;9.98;52.91;101118.47;4991509;28;20058;-81
2023/04/04 10:23:44;;;;;;;4.32;1.90;;;;;;;10.07;54.12;101117.31;4991467;28;20068;-81
2023/04/04 10:26:12;;;;;;;4.38;1.88;;;;;;;10.16;54.07;101121.41;4990958;28;20505;-82
2023/04/04 10:28:39;;;;;;;6.35;1.83;;;;;;;10.25;54.29;101125.50;4989629;28;20060;-81
2023/04/04 10:31:25;;;;;;;6.45;2.33;;;;;;;10.34;51.75;101121.69;4991078;28;20059;-82
2023/04/04 10:34:24;;;;;;;3.35;1.80;;;;;;;10.49;50.98;101122.97;4991291;28;20054;-82
2023/04/04 10:36:57;;;;;;;5.72;1.88;;;;;;;10.65;52.22;101107.50;4990564;28;20551;-82
2023/04/04 10:39:52;;;;;;;7.15;2.55;;;;;;;10.77;50.95;101106.22;4989962;28;20133;-81
2023/04/04 10:42:18;;;;;;;3.92;2.03;;;;;;;10.95;53.60;101107.28;4980139;28;20100;-82
2023/04/04 10:44:46;;;;;;;3.90;1.85;;;;;;;11.07;53.92;101100.72;4989374;28;20054;-82
2023/04/04 10:47:22;;;;;;;2.85;1.90;;;;;;;11.25;53.71;101100.94;4989311;28;20089;-82
2023/04/04 10:49:50;;;;;;;4.18;1.98;;;;;;;11.40;53.19;101091.59;4989052;28;20054;-82
2023/04/04 10:52:23;;;;;;;4.10;2.00;;;;;;;11.54;51.62;101093.66;4990684;28;20058;-82
2023/04/04 10:54:56;;;;;;;4.55;2.13;;;;;;;11.72;52.76;101090.31;4989318;28;20072;-81
2023/04/04 10:57:23;;;;;;;4.68;1.92;;;;;;;11.92;53.28;101095.69;4990651;28;20312;-82
2023/04/04 10:59:59;;;;;;;3.38;1.88;;;;;;;12.07;50.07;101095.09;4990779;28;20527;-82
2023/04/04 11:02:45;;;;;;;3.38;1.90;;;;;;;12.30;50.74;101089.75;4990556;28;20060;-82
2023/04/04 11:05:25;;;;;;;2.53;1.55;;;;;;;12.58;49.82;101094.72;4990519;28;20054;-82
2023/04/04 11:08:01;;;;;;;3.90;1.83;;;;;;;12.87;50.10;101084.59;4989212;28;20054;-82
2023/04/04 11:10:34;;;;;;;3.10;1.80;;;;;;;13.21;52.43;101090.16;4989345;28;20065;-82
2023/04/04 11:13:10;;;;;;;4.90;2.05;;;;;;;13.55;53.46;101080.63;4989203;28;20046;-82
2023/04/04 11:15:58;;;;;;;3.72;1.98;;;;;;;13.99;49.92;101085.59;4989281;28;20070;-82
2023/04/04 11:18:31;;;;;;;3.72;1.77;;;;;;;14.50;49.94;101082.16;4988827;28;20509;-82
2023/04/04 11:21:06;;;;;;;3.97;2.30;;;;;;;15.00;50.52;101072.47;4989049;28;20065;-84
2023/04/04 11:23:48;;;;;;;3.55;2.20;;;;;;;15.53;48.48;101068.69;4990712;28;20054;-82
2023/04/04 11:26:26;;;;;;;4.15;2.15;;;;;;;16.02;47.34;101057.94;4990229;28;20054;-83
2023/04/04 11:28:57;;;;;;;3.35;1.80;;;;;;;16.46;46.95;101060.66;4990388;28;20058;-82
2023/04/04 11:31:31;;;;;;;4.03;2.13;;;;;;;16.83;48.43;101056.66;4989999;28;20493;-83
2023/04/04 11:34:15;;;;;;;5.28;2.40;;;;;;;17.13;45.20;101051.25;4990668;28;20054;-82
2023/04/04 11:36:43;;;;;;;6.45;2.03;;;;;;;17.51;48.59;101051.50;4989737;28;20177;-83